sensor_id;sensor_type;location;lat;lon;timestamp;P1;durP1;ratioP1;P2;durP2;ratioP2
44222;SDS011;29895;48.804;9.386;2024-03-17T00:00:19;24.00;;;9.10;;
44222;SDS011;29895;48.804;9.386;2024-03-17T00:02:46;20.48;;;9.65;;
44222;SDS011;29895;48.804;9.386;2024-03-17T00:05:12;23.08;;;9.20;;
44222;SDS011;29895;48.804;9.386;2024-03-17T00:07:38;20.20;;;9.57;;
44222;SDS011;29895;48.804;9.386;2024-03-17T00:10:07;21.75;;;10.80;;
44222;SDS011;29895;48.804;9.386;2024-03-17T00:12:33;17.60;;;9.80;;
44222;SDS011;29895;48.804;9.386;2024-03-17T00:14:59;21.95;;;10.82;;
44222;SDS011;29895;48.804;9.386;2024-03-17T00:17:25;21.67;;;9.57;;
44222;SDS011;29895;48.804;9.386;2024-03-17T00:19:50;21.98;;;9.60;;
44222;SDS011;29895;48.804;9.386;2024-03-17T00:22:16;20.25;;;10.25;;
44222;SDS011;29895;48.804;9.386;2024-03-17T00:24:45;19.05;;;9.38;;
44222;SDS011;29895;48.804;9.386;2024-03-17T00:27:11;20.27;;;10.02;;
44222;SDS011;29895;48.804;9.386;2024-03-17T00:29:37;21.13;;;9.85;;
44222;SDS011;29895;48.804;9.386;2024-03-17T00:32:03;19.95;;;9.73;;
44222;SDS011;29895;48.804;9.386;2024-03-17T00:34:29;20.42;;;9.13;;
44222;SDS011;29895;48.804;9.386;2024-03-17T00:36:55;20.17;;;9.80;;
44222;SDS011;29895;48.804;9.386;2024-03-17T00:39:21;17.35;;;9.02;;
44222;SDS011;29895;48.804;9.386;2024-03-17T00:41:47;16.40;;;9.20;;
44222;SDS011;29895;48.804;9.386;2024-03-17T00:44:13;23.35;;;11.55;;
44222;SDS011;29895;48.804;9.386;2024-03-17T00:46:40;16.35;;;9.70;;
44222;SDS011;29895;48.804;9.386;2024-03-17T00:49:07;20.10;;;9.98;;
44222;SDS011;29895;48.804;9.386;2024-03-17T00:51:34;18.80;;;9.05;;
44222;SDS011;29895;48.804;9.386;2024-03-17T00:53:59;17.83;;;9.10;;
44222;SDS011;29895;48.804;9.386;2024-03-17T00:56:25;20.55;;;9.93;;
44222;SDS011;29895;48.804;9.386;2024-03-17T00:58:51;20.52;;;9.35;;
44222;SDS011;29895;48.804;9.386;2024-03-17T01:01:17;22.30;;;9.52;;
44222;SDS011;29895;48.804;9.386;2024-03-17T01:03:44;18.30;;;9.73;;
44222;SDS011;29895;48.804;9.386;2024-03-17T01:06:11;19.70;;;9.75;;
44222;SDS011;29895;48.804;9.386;2024-03-17T01:08:36;24.30;;;10.68;;
44222;SDS011;29895;48.804;9.386;2024-03-17T01:11:02;21.00;;;10.27;;
44222;SDS011;29895;48.804;9.386;2024-03-17T01:13:28;22.05;;;10.30;;
44222;SDS011;29895;48.804;9.386;2024-03-17T01:15:54;22.10;;;10.38;;
44222;SDS011;29895;48.804;9.386;2024-03-17T01:18:19;17.13;;;9.55;;
44222;SDS011;29895;48.804;9.386;2024-03-17T01:20:45;19.75;;;9.63;;
44222;SDS011;29895;48.804;9.386;2024-03-17T01:23:11;19.25;;;9.75;;
44222;SDS011;29895;48.804;9.386;2024-03-17T01:25:37;20.85;;;9.95;;
44222;SDS011;29895;48.804;9.386;2024-03-17T01:28:03;20.73;;;10.02;;
44222;SDS011;29895;48.804;9.386;2024-03-17T01:30:30;16.92;;;9.60;;
44222;SDS011;29895;48.804;9.386;2024-03-17T01:32:57;19.88;;;10.15;;
44222;SDS011;29895;48.804;9.386;2024-03-17T01:35:24;22.25;;;10.40;;
44222;SDS011;29895;48.804;9.386;2024-03-17T01:37:50;21.30;;;10.13;;
44222;SDS011;29895;48.804;9.386;2024-03-17T01:40:16;23.50;;;11.18;;
44222;SDS011;29895;48.804;9.386;2024-03-17T01:42:42;22.88;;;10.07;;
44222;SDS011;29895;48.804;9.386;2024-03-17T01:47:42;22.20;;;10.27;;
44222;SDS011;29895;48.804;9.386;2024-03-17T01:50:09;23.38;;;10.05;;
44222;SDS011;29895;48.804;9.386;2024-03-17T01:52:36;22.73;;;10.10;;
44222;SDS011;29895;48.804;9.386;2024-03-17T01:55:03;18.13;;;8.52;;
44222;SDS011;29895;48.804;9.386;2024-03-17T01:57:29;18.63;;;9.25;;
44222;SDS011;29895;48.804;9.386;2024-03-17T01:59:55;18.83;;;9.13;;
44222;SDS011;29895;48.804;9.386;2024-03-17T02:02:22;19.95;;;9.63;;
44222;SDS011;29895;48.804;9.386;2024-03-17T02:04:47;22.88;;;9.80;;
44222;SDS011;29895;48.804;9.386;2024-03-17T02:07:14;24.20;;;9.55;;
44222;SDS011;29895;48.804;9.386;2024-03-17T02:09:40;22.52;;;9.20;;
44222;SDS011;29895;48.804;9.386;2024-03-17T02:12:08;19.42;;;9.70;;
44222;SDS011;29895;48.804;9.386;2024-03-17T02:14:35;21.80;;;9.18;;
44222;SDS011;29895;48.804;9.386;2024-03-17T02:17:01;19.90;;;9.77;;
44222;SDS011;29895;48.804;9.386;2024-03-17T02:19:27;21.75;;;9.25;;
44222;SDS011;29895;48.804;9.386;2024-03-17T02:21:53;23.35;;;10.05;;
44222;SDS011;29895;48.804;9.386;2024-03-17T02:24:18;25.05;;;10.13;;
44222;SDS011;29895;48.804;9.386;2024-03-17T02:26:44;22.23;;;10.27;;
44222;SDS011;29895;48.804;9.386;2024-03-17T02:29:10;24.42;;;11.18;;
44222;SDS011;29895;48.804;9.386;2024-03-17T02:31:35;26.58;;;11.32;;
44222;SDS011;29895;48.804;9.386;2024-03-17T02:34:01;20.67;;;10.18;;
44222;SDS011;29895;48.804;9.386;2024-03-17T02:36:26;25.30;;;10.75;;
44222;SDS011;29895;48.804;9.386;2024-03-17T02:38:52;17.85;;;8.85;;
44222;SDS011;29895;48.804;9.386;2024-03-17T02:41:36;18.33;;;9.43;;
44222;SDS011;29895;48.804;9.386;2024-03-17T02:44:02;17.30;;;8.88;;
44222;SDS011;29895;48.804;9.386;2024-03-17T02:46:27;21.17;;;9.13;;
44222;SDS011;29895;48.804;9.386;2024-03-17T02:48:54;15.77;;;8.80;;
44222;SDS011;29895;48.804;9.386;2024-03-17T02:51:20;18.42;;;8.40;;
44222;SDS011;29895;48.804;9.386;2024-03-17T02:53:48;19.63;;;9.85;;
44222;SDS011;29895;48.804;9.386;2024-03-17T02:56:15;15.73;;;8.10;;
44222;SDS011;29895;48.804;9.386;2024-03-17T02:58:41;17.88;;;8.45;;
44222;SDS011;29895;48.804;9.386;2024-03-17T03:01:08;14.60;;;8.15;;
44222;SDS011;29895;48.804;9.386;2024-03-17T03:03:35;17.48;;;8.73;;
44222;SDS011;29895;48.804;9.386;2024-03-17T03:06:01;16.70;;;8.40;;
44222;SDS011;29895;48.804;9.386;2024-03-17T03:08:37;16.13;;;8.27;;
44222;SDS011;29895;48.804;9.386;2024-03-17T03:11:05;19.58;;;8.57;;
44222;SDS011;29895;48.804;9.386;2024-03-17T03:13:35;16.33;;;8.65;;
44222;SDS011;29895;48.804;9.386;2024-03-17T03:16:02;17.08;;;8.35;;
44222;SDS011;29895;48.804;9.386;2024-03-17T03:18:29;18.02;;;8.00;;
44222;SDS011;29895;48.804;9.386;2024-03-17T03:20:54;16.25;;;8.02;;
44222;SDS011;29895;48.804;9.386;2024-03-17T03:23:20;17.77;;;8.10;;
44222;SDS011;29895;48.804;9.386;2024-03-17T03:25:46;20.27;;;8.15;;
44222;SDS011;29895;48.804;9.386;2024-03-17T03:28:12;15.85;;;7.72;;
44222;SDS011;29895;48.804;9.386;2024-03-17T03:30:38;15.52;;;7.85;;
44222;SDS011;29895;48.804;9.386;2024-03-17T03:33:04;12.35;;;6.85;;
44222;SDS011;29895;48.804;9.386;2024-03-17T03:35:30;16.90;;;8.38;;
44222;SDS011;29895;48.804;9.386;2024-03-17T03:37:56;15.65;;;8.45;;
44222;SDS011;29895;48.804;9.386;2024-03-17T03:40:22;17.13;;;8.63;;
44222;SDS011;29895;48.804;9.386;2024-03-17T03:42:48;19.92;;;9.45;;
44222;SDS011;29895;48.804;9.386;2024-03-17T03:45:13;20.75;;;9.00;;
44222;SDS011;29895;48.804;9.386;2024-03-17T03:47:39;19.33;;;9.45;;
44222;SDS011;29895;48.804;9.386;2024-03-17T03:50:09;20.17;;;9.02;;
44222;SDS011;29895;48.804;9.386;2024-03-17T03:52:36;19.42;;;8.98;;
44222;SDS011;29895;48.804;9.386;2024-03-17T03:55:02;24.77;;;8.57;;
44222;SDS011;29895;48.804;9.386;2024-03-17T03:57:29;19.55;;;8.82;;
44222;SDS011;29895;48.804;9.386;2024-03-17T03:59:57;16.90;;;8.40;;
44222;SDS011;29895;48.804;9.386;2024-03-17T04:02:22;17.92;;;9.00;;
44222;SDS011;29895;48.804;9.386;2024-03-17T04:04:50;20.45;;;9.63;;
44222;SDS011;29895;48.804;9.386;2024-03-17T04:07:16;15.80;;;8.07;;
44222;SDS011;29895;48.804;9.386;2024-03-17T04:09:41;16.52;;;8.60;;
44222;SDS011;29895;48.804;9.386;2024-03-17T04:12:07;17.55;;;9.05;;
44222;SDS011;29895;48.804;9.386;2024-03-17T04:14:33;17.02;;;8.93;;
44222;SDS011;29895;48.804;9.386;2024-03-17T04:16:58;19.10;;;9.25;;
44222;SDS011;29895;48.804;9.386;2024-03-17T04:19:24;19.27;;;8.98;;
44222;SDS011;29895;48.804;9.386;2024-03-17T04:21:51;18.40;;;9.00;;
44222;SDS011;29895;48.804;9.386;2024-03-17T04:24:16;17.45;;;7.90;;
44222;SDS011;29895;48.804;9.386;2024-03-17T04:26:43;18.83;;;8.48;;
44222;SDS011;29895;48.804;9.386;2024-03-17T04:29:08;16.60;;;9.15;;
44222;SDS011;29895;48.804;9.386;2024-03-17T04:31:34;19.73;;;9.05;;
44222;SDS011;29895;48.804;9.386;2024-03-17T04:34:00;20.60;;;9.55;;
44222;SDS011;29895;48.804;9.386;2024-03-17T04:36:25;15.57;;;8.55;;
44222;SDS011;29895;48.804;9.386;2024-03-17T04:38:52;19.13;;;8.52;;
44222;SDS011;29895;48.804;9.386;2024-03-17T04:41:19;17.08;;;8.02;;
44222;SDS011;29895;48.804;9.386;2024-03-17T04:43:45;15.15;;;7.63;;
44222;SDS011;29895;48.804;9.386;2024-03-17T04:46:11;19.02;;;7.38;;
44222;SDS011;29895;48.804;9.386;2024-03-17T04:48:38;16.85;;;7.95;;
44222;SDS011;29895;48.804;9.386;2024-03-17T04:51:04;13.15;;;7.13;;
44222;SDS011;29895;48.804;9.386;2024-03-17T04:53:30;17.10;;;8.18;;
44222;SDS011;29895;48.804;9.386;2024-03-17T04:58:25;16.45;;;8.23;;
44222;SDS011;29895;48.804;9.386;2024-03-17T05:00:51;14.57;;;7.93;;
44222;SDS011;29895;48.804;9.386;2024-03-17T05:03:16;17.17;;;8.10;;
44222;SDS011;29895;48.804;9.386;2024-03-17T05:05:42;16.33;;;8.13;;
44222;SDS011;29895;48.804;9.386;2024-03-17T05:08:07;19.33;;;7.57;;
44222;SDS011;29895;48.804;9.386;2024-03-17T05:10:33;13.13;;;6.90;;
44222;SDS011;29895;48.804;9.386;2024-03-17T05:12:59;15.02;;;7.43;;
44222;SDS011;29895;48.804;9.386;2024-03-17T05:15:25;16.42;;;7.78;;
44222;SDS011;29895;48.804;9.386;2024-03-17T05:17:50;14.15;;;6.93;;
44222;SDS011;29895;48.804;9.386;2024-03-17T05:20:16;14.43;;;6.78;;
44222;SDS011;29895;48.804;9.386;2024-03-17T05:22:42;15.77;;;7.70;;
44222;SDS011;29895;48.804;9.386;2024-03-17T05:25:09;15.77;;;7.82;;
44222;SDS011;29895;48.804;9.386;2024-03-17T05:27:35;17.95;;;8.70;;
44222;SDS011;29895;48.804;9.386;2024-03-17T05:30:00;19.08;;;8.13;;
44222;SDS011;29895;48.804;9.386;2024-03-17T05:32:26;18.33;;;8.63;;
44222;SDS011;29895;48.804;9.386;2024-03-17T05:34:52;17.67;;;8.18;;
44222;SDS011;29895;48.804;9.386;2024-03-17T05:37:17;17.50;;;8.02;;
44222;SDS011;29895;48.804;9.386;2024-03-17T05:39:43;15.75;;;6.80;;
44222;SDS011;29895;48.804;9.386;2024-03-17T05:42:08;17.48;;;8.10;;
44222;SDS011;29895;48.804;9.386;2024-03-17T05:44:34;14.63;;;7.32;;
44222;SDS011;29895;48.804;9.386;2024-03-17T05:47:16;15.40;;;7.35;;
44222;SDS011;29895;48.804;9.386;2024-03-17T05:49:43;16.65;;;8.60;;
44222;SDS011;29895;48.804;9.386;2024-03-17T05:52:08;20.67;;;8.90;;
44222;SDS011;29895;48.804;9.386;2024-03-17T05:54:35;21.15;;;10.02;;
44222;SDS011;29895;48.804;9.386;2024-03-17T05:57:00;15.55;;;8.85;;
44222;SDS011;29895;48.804;9.386;2024-03-17T05:59:29;21.23;;;9.70;;
44222;SDS011;29895;48.804;9.386;2024-03-17T06:01:56;17.88;;;8.63;;
44222;SDS011;29895;48.804;9.386;2024-03-17T06:04:22;19.75;;;9.65;;
44222;SDS011;29895;48.804;9.386;2024-03-17T06:06:49;19.58;;;9.00;;
44222;SDS011;29895;48.804;9.386;2024-03-17T06:09:14;17.92;;;8.55;;
44222;SDS011;29895;48.804;9.386;2024-03-17T06:11:43;19.38;;;8.70;;
44222;SDS011;29895;48.804;9.386;2024-03-17T06:14:09;17.45;;;9.25;;
44222;SDS011;29895;48.804;9.386;2024-03-17T06:16:36;17.35;;;8.70;;
44222;SDS011;29895;48.804;9.386;2024-03-17T06:19:02;17.73;;;9.13;;
44222;SDS011;29895;48.804;9.386;2024-03-17T06:21:28;20.77;;;10.65;;
44222;SDS011;29895;48.804;9.386;2024-03-17T06:23:54;38.47;;;14.27;;
44222;SDS011;29895;48.804;9.386;2024-03-17T06:26:20;26.02;;;12.50;;
44222;SDS011;29895;48.804;9.386;2024-03-17T06:28:46;24.88;;;11.02;;
44222;SDS011;29895;48.804;9.386;2024-03-17T06:31:12;18.85;;;10.02;;
44222;SDS011;29895;48.804;9.386;2024-03-17T06:33:37;16.90;;;9.32;;
44222;SDS011;29895;48.804;9.386;2024-03-17T06:36:03;13.95;;;7.95;;
44222;SDS011;29895;48.804;9.386;2024-03-17T06:38:30;11.98;;;7.43;;
44222;SDS011;29895;48.804;9.386;2024-03-17T06:40:56;12.60;;;7.53;;
44222;SDS011;29895;48.804;9.386;2024-03-17T06:43:22;10.98;;;6.20;;
44222;SDS011;29895;48.804;9.386;2024-03-17T06:45:57;12.63;;;6.50;;
44222;SDS011;29895;48.804;9.386;2024-03-17T06:48:27;13.07;;;6.05;;
44222;SDS011;29895;48.804;9.386;2024-03-17T06:50:54;11.65;;;5.60;;
44222;SDS011;29895;48.804;9.386;2024-03-17T06:53:26;10.82;;;6.15;;
44222;SDS011;29895;48.804;9.386;2024-03-17T06:55:55;13.65;;;6.55;;
44222;SDS011;29895;48.804;9.386;2024-03-17T06:58:21;10.25;;;5.85;;
44222;SDS011;29895;48.804;9.386;2024-03-17T07:00:57;13.07;;;6.55;;
44222;SDS011;29895;48.804;9.386;2024-03-17T07:03:28;10.77;;;5.90;;
44222;SDS011;29895;48.804;9.386;2024-03-17T07:05:55;12.70;;;7.13;;
44222;SDS011;29895;48.804;9.386;2024-03-17T07:08:22;11.55;;;6.50;;
44222;SDS011;29895;48.804;9.386;2024-03-17T07:10:55;11.77;;;6.95;;
44222;SDS011;29895;48.804;9.386;2024-03-17T07:13:21;11.07;;;6.78;;
44222;SDS011;29895;48.804;9.386;2024-03-17T07:15:47;12.45;;;7.43;;
44222;SDS011;29895;48.804;9.386;2024-03-17T07:18:12;12.27;;;7.15;;
44222;SDS011;29895;48.804;9.386;2024-03-17T07:20:38;9.85;;;6.22;;
44222;SDS011;29895;48.804;9.386;2024-03-17T07:23:04;9.35;;;6.00;;
44222;SDS011;29895;48.804;9.386;2024-03-17T07:25:30;10.23;;;5.90;;
44222;SDS011;29895;48.804;9.386;2024-03-17T07:27:55;12.68;;;6.00;;
44222;SDS011;29895;48.804;9.386;2024-03-17T07:30:21;13.00;;;6.53;;
44222;SDS011;29895;48.804;9.386;2024-03-17T07:32:47;9.43;;;5.60;;
44222;SDS011;29895;48.804;9.386;2024-03-17T07:35:12;7.90;;;4.93;;
44222;SDS011;29895;48.804;9.386;2024-03-17T07:37:39;10.80;;;5.38;;
44222;SDS011;29895;48.804;9.386;2024-03-17T07:40:05;6.32;;;4.90;;
44222;SDS011;29895;48.804;9.386;2024-03-17T07:42:35;8.10;;;5.00;;
44222;SDS011;29895;48.804;9.386;2024-03-17T07:45:01;8.50;;;5.47;;
44222;SDS011;29895;48.804;9.386;2024-03-17T07:47:27;7.05;;;5.15;;
44222;SDS011;29895;48.804;9.386;2024-03-17T07:50:01;7.85;;;5.40;;
44222;SDS011;29895;48.804;9.386;2024-03-17T07:52:29;10.95;;;5.93;;
44222;SDS011;29895;48.804;9.386;2024-03-17T07:54:55;11.40;;;5.38;;
44222;SDS011;29895;48.804;9.386;2024-03-17T07:57:21;7.97;;;5.15;;
44222;SDS011;29895;48.804;9.386;2024-03-17T07:59:49;8.48;;;6.00;;
44222;SDS011;29895;48.804;9.386;2024-03-17T08:02:16;7.30;;;5.53;;
44222;SDS011;29895;48.804;9.386;2024-03-17T08:04:42;10.93;;;5.53;;
44222;SDS011;29895;48.804;9.386;2024-03-17T08:07:09;7.43;;;5.47;;
44222;SDS011;29895;48.804;9.386;2024-03-17T08:09:35;8.40;;;5.80;;
44222;SDS011;29895;48.804;9.386;2024-03-17T08:12:01;8.50;;;6.13;;
44222;SDS011;29895;48.804;9.386;2024-03-17T08:14:29;10.32;;;6.40;;
44222;SDS011;29895;48.804;9.386;2024-03-17T08:16:55;11.15;;;6.13;;
44222;SDS011;29895;48.804;9.386;2024-03-17T08:19:21;9.70;;;6.47;;
44222;SDS011;29895;48.804;9.386;2024-03-17T08:21:47;11.10;;;5.70;;
44222;SDS011;29895;48.804;9.386;2024-03-17T08:24:12;8.85;;;6.03;;
44222;SDS011;29895;48.804;9.386;2024-03-17T08:26:38;10.45;;;5.80;;
44222;SDS011;29895;48.804;9.386;2024-03-17T08:29:05;8.98;;;5.78;;
44222;SDS011;29895;48.804;9.386;2024-03-17T08:31:31;10.85;;;6.43;;
44222;SDS011;29895;48.804;9.386;2024-03-17T08:33:58;8.95;;;5.90;;
44222;SDS011;29895;48.804;9.386;2024-03-17T08:36:24;9.02;;;6.68;;
44222;SDS011;29895;48.804;9.386;2024-03-17T08:38:49;8.88;;;6.05;;
44222;SDS011;29895;48.804;9.386;2024-03-17T08:41:15;9.38;;;5.55;;
44222;SDS011;29895;48.804;9.386;2024-03-17T08:43:42;6.93;;;5.68;;
44222;SDS011;29895;48.804;9.386;2024-03-17T08:46:08;8.82;;;5.80;;
44222;SDS011;29895;48.804;9.386;2024-03-17T08:48:36;10.95;;;6.72;;
44222;SDS011;29895;48.804;9.386;2024-03-17T08:51:03;7.85;;;5.53;;
44222;SDS011;29895;48.804;9.386;2024-03-17T08:53:30;8.50;;;5.47;;
44222;SDS011;29895;48.804;9.386;2024-03-17T08:55:57;11.43;;;5.80;;
44222;SDS011;29895;48.804;9.386;2024-03-17T08:58:23;10.48;;;5.82;;
44222;SDS011;29895;48.804;9.386;2024-03-17T09:00:50;9.00;;;6.32;;
44222;SDS011;29895;48.804;9.386;2024-03-17T09:03:16;9.85;;;5.53;;
44222;SDS011;29895;48.804;9.386;2024-03-17T09:05:43;8.20;;;5.47;;
44222;SDS011;29895;48.804;9.386;2024-03-17T09:08:17;8.20;;;5.20;;
44222;SDS011;29895;48.804;9.386;2024-03-17T09:10:45;10.45;;;5.72;;
44222;SDS011;29895;48.804;9.386;2024-03-17T09:13:18;9.13;;;6.13;;
44222;SDS011;29895;48.804;9.386;2024-03-17T09:18:33;14.32;;;6.35;;
44222;SDS011;29895;48.804;9.386;2024-03-17T09:21:01;7.78;;;5.32;;
44222;SDS011;29895;48.804;9.386;2024-03-17T09:23:28;10.88;;;5.60;;
44222;SDS011;29895;48.804;9.386;2024-03-17T09:26:04;8.40;;;4.80;;
44222;SDS011;29895;48.804;9.386;2024-03-17T09:28:34;7.15;;;4.65;;
44222;SDS011;29895;48.804;9.386;2024-03-17T09:31:01;9.90;;;4.88;;
44222;SDS011;29895;48.804;9.386;2024-03-17T09:33:28;7.13;;;4.53;;
44222;SDS011;29895;48.804;9.386;2024-03-17T09:35:56;7.93;;;4.28;;
44222;SDS011;29895;48.804;9.386;2024-03-17T09:38:23;8.05;;;4.60;;
44222;SDS011;29895;48.804;9.386;2024-03-17T09:40:49;6.45;;;4.00;;
44222;SDS011;29895;48.804;9.386;2024-03-17T09:43:17;6.70;;;3.70;;
44222;SDS011;29895;48.804;9.386;2024-03-17T09:45:47;5.13;;;3.83;;
44222;SDS011;29895;48.804;9.386;2024-03-17T09:48:14;7.35;;;3.47;;
44222;SDS011;29895;48.804;9.386;2024-03-17T09:50:44;4.22;;;3.47;;
44222;SDS011;29895;48.804;9.386;2024-03-17T09:53:16;6.65;;;3.80;;
44222;SDS011;29895;48.804;9.386;2024-03-17T09:55:44;5.20;;;3.20;;
44222;SDS011;29895;48.804;9.386;2024-03-17T09:58:14;7.65;;;3.70;;
44222;SDS011;29895;48.804;9.386;2024-03-17T10:00:45;8.20;;;4.15;;
44222;SDS011;29895;48.804;9.386;2024-03-17T10:03:11;6.50;;;3.42;;
44222;SDS011;29895;48.804;9.386;2024-03-17T10:05:38;7.22;;;3.33;;
44222;SDS011;29895;48.804;9.386;2024-03-17T10:08:04;6.00;;;3.63;;
44222;SDS011;29895;48.804;9.386;2024-03-17T10:10:29;5.45;;;3.00;;
44222;SDS011;29895;48.804;9.386;2024-03-17T10:12:55;4.10;;;2.95;;
44222;SDS011;29895;48.804;9.386;2024-03-17T10:15:21;7.00;;;3.80;;
44222;SDS011;29895;48.804;9.386;2024-03-17T10:17:48;5.05;;;3.17;;
44222;SDS011;29895;48.804;9.386;2024-03-17T10:20:18;5.50;;;3.65;;
44222;SDS011;29895;48.804;9.386;2024-03-17T10:22:57;5.95;;;3.42;;
44222;SDS011;29895;48.804;9.386;2024-03-17T10:25:26;5.78;;;3.30;;
44222;SDS011;29895;48.804;9.386;2024-03-17T10:27:52;4.57;;;3.47;;
44222;SDS011;29895;48.804;9.386;2024-03-17T10:30:19;4.68;;;3.28;;
44222;SDS011;29895;48.804;9.386;2024-03-17T10:32:48;4.80;;;2.92;;
44222;SDS011;29895;48.804;9.386;2024-03-17T10:35:25;5.10;;;3.08;;
44222;SDS011;29895;48.804;9.386;2024-03-17T10:37:58;6.68;;;2.63;;
44222;SDS011;29895;48.804;9.386;2024-03-17T10:40:25;5.43;;;3.45;;
44222;SDS011;29895;48.804;9.386;2024-03-17T10:42:52;6.30;;;2.90;;
44222;SDS011;29895;48.804;9.386;2024-03-17T10:45:17;5.60;;;3.10;;
44222;SDS011;29895;48.804;9.386;2024-03-17T10:47:46;4.65;;;3.00;;
44222;SDS011;29895;48.804;9.386;2024-03-17T10:50:22;6.25;;;2.92;;
44222;SDS011;29895;48.804;9.386;2024-03-17T10:52:51;5.13;;;3.05;;
44222;SDS011;29895;48.804;9.386;2024-03-17T10:55:24;6.07;;;2.90;;
44222;SDS011;29895;48.804;9.386;2024-03-17T10:57:51;5.15;;;2.85;;
44222;SDS011;29895;48.804;9.386;2024-03-17T11:00:20;5.15;;;2.90;;
44222;SDS011;29895;48.804;9.386;2024-03-17T11:02:47;7.10;;;3.70;;
44222;SDS011;29895;48.804;9.386;2024-03-17T11:07:45;4.18;;;2.75;;
44222;SDS011;29895;48.804;9.386;2024-03-17T11:10:17;7.22;;;2.95;;
44222;SDS011;29895;48.804;9.386;2024-03-17T11:17:44;4.75;;;3.15;;
44222;SDS011;29895;48.804;9.386;2024-03-17T11:20:15;7.97;;;3.30;;
44222;SDS011;29895;48.804;9.386;2024-03-17T11:22:48;5.85;;;2.90;;
44222;SDS011;29895;48.804;9.386;2024-03-17T11:25:37;5.35;;;3.00;;
44222;SDS011;29895;48.804;9.386;2024-03-17T11:28:05;7.60;;;2.80;;
44222;SDS011;29895;48.804;9.386;2024-03-17T11:38:52;4.78;;;2.97;;
44222;SDS011;29895;48.804;9.386;2024-03-17T11:46:51;4.43;;;2.63;;
44222;SDS011;29895;48.804;9.386;2024-03-17T11:49:39;3.65;;;2.53;;
44222;SDS011;29895;48.804;9.386;2024-03-17T11:54:37;5.63;;;2.80;;
44222;SDS011;29895;48.804;9.386;2024-03-17T11:57:08;6.97;;;2.58;;
44222;SDS011;29895;48.804;9.386;2024-03-17T11:59:35;8.43;;;2.63;;
44222;SDS011;29895;48.804;9.386;2024-03-17T12:02:02;5.07;;;2.30;;
44222;SDS011;29895;48.804;9.386;2024-03-17T12:04:41;4.15;;;2.30;;
44222;SDS011;29895;48.804;9.386;2024-03-17T12:07:14;3.95;;;2.22;;
44222;SDS011;29895;48.804;9.386;2024-03-17T12:09:41;4.35;;;1.90;;
44222;SDS011;29895;48.804;9.386;2024-03-17T12:14:38;5.80;;;2.65;;
44222;SDS011;29895;48.804;9.386;2024-03-17T12:17:08;5.25;;;2.38;;
44222;SDS011;29895;48.804;9.386;2024-03-17T12:19:36;3.95;;;2.30;;
44222;SDS011;29895;48.804;9.386;2024-03-17T12:22:05;4.90;;;2.13;;
44222;SDS011;29895;48.804;9.386;2024-03-17T12:27:01;10.23;;;2.67;;
44222;SDS011;29895;48.804;9.386;2024-03-17T12:29:36;6.70;;;2.50;;
44222;SDS011;29895;48.804;9.386;2024-03-17T12:34:36;3.78;;;2.13;;
44222;SDS011;29895;48.804;9.386;2024-03-17T12:37:03;5.55;;;2.50;;
44222;SDS011;29895;48.804;9.386;2024-03-17T12:39:33;3.70;;;2.47;;
44222;SDS011;29895;48.804;9.386;2024-03-17T12:42:06;4.00;;;2.00;;
44222;SDS011;29895;48.804;9.386;2024-03-17T12:44:33;8.10;;;2.95;;
44222;SDS011;29895;48.804;9.386;2024-03-17T12:47:08;6.88;;;2.60;;
44222;SDS011;29895;48.804;9.386;2024-03-17T12:49:44;4.85;;;2.55;;
44222;SDS011;29895;48.804;9.386;2024-03-17T12:57:49;5.10;;;2.47;;
44222;SDS011;29895;48.804;9.386;2024-03-17T13:00:35;5.97;;;2.10;;
44222;SDS011;29895;48.804;9.386;2024-03-17T13:03:01;3.72;;;2.00;;
44222;SDS011;29895;48.804;9.386;2024-03-17T13:05:31;3.40;;;2.22;;
44222;SDS011;29895;48.804;9.386;2024-03-17T13:07:57;5.38;;;2.33;;
44222;SDS011;29895;48.804;9.386;2024-03-17T13:10:24;5.65;;;2.25;;
44222;SDS011;29895;48.804;9.386;2024-03-17T13:13:00;3.42;;;2.05;;
44222;SDS011;29895;48.804;9.386;2024-03-17T13:15:27;3.70;;;2.28;;
44222;SDS011;29895;48.804;9.386;2024-03-17T13:17:56;3.67;;;2.03;;
44222;SDS011;29895;48.804;9.386;2024-03-17T13:20:22;4.32;;;2.10;;
44222;SDS011;29895;48.804;9.386;2024-03-17T13:22:48;5.63;;;2.30;;
44222;SDS011;29895;48.804;9.386;2024-03-17T13:25:20;4.90;;;2.40;;
44222;SDS011;29895;48.804;9.386;2024-03-17T13:27:48;6.22;;;2.00;;
44222;SDS011;29895;48.804;9.386;2024-03-17T13:30:16;5.70;;;2.05;;
44222;SDS011;29895;48.804;9.386;2024-03-17T13:32:42;6.03;;;2.40;;
44222;SDS011;29895;48.804;9.386;2024-03-17T13:35:17;5.75;;;2.25;;
44222;SDS011;29895;48.804;9.386;2024-03-17T13:37:46;6.22;;;2.28;;
44222;SDS011;29895;48.804;9.386;2024-03-17T13:40:13;5.88;;;2.42;;
44222;SDS011;29895;48.804;9.386;2024-03-17T13:42:44;6.10;;;2.10;;
44222;SDS011;29895;48.804;9.386;2024-03-17T13:45:11;5.82;;;2.30;;
44222;SDS011;29895;48.804;9.386;2024-03-17T13:47:38;5.00;;;1.90;;
44222;SDS011;29895;48.804;9.386;2024-03-17T13:50:10;3.47;;;2.15;;
44222;SDS011;29895;48.804;9.386;2024-03-17T13:52:37;5.32;;;2.35;;
44222;SDS011;29895;48.804;9.386;2024-03-17T13:55:04;4.28;;;2.20;;
44222;SDS011;29895;48.804;9.386;2024-03-17T13:57:32;3.53;;;2.05;;
44222;SDS011;29895;48.804;9.386;2024-03-17T13:59:58;4.63;;;2.50;;
44222;SDS011;29895;48.804;9.386;2024-03-17T14:02:24;3.90;;;2.30;;
44222;SDS011;29895;48.804;9.386;2024-03-17T14:04:50;4.63;;;2.40;;
44222;SDS011;29895;48.804;9.386;2024-03-17T14:07:15;6.75;;;2.35;;
44222;SDS011;29895;48.804;9.386;2024-03-17T14:09:41;4.38;;;2.40;;
44222;SDS011;29895;48.804;9.386;2024-03-17T14:12:07;4.97;;;2.10;;
44222;SDS011;29895;48.804;9.386;2024-03-17T14:14:33;4.28;;;2.30;;
44222;SDS011;29895;48.804;9.386;2024-03-17T14:16:59;5.85;;;2.33;;
44222;SDS011;29895;48.804;9.386;2024-03-17T14:19:25;4.40;;;2.53;;
44222;SDS011;29895;48.804;9.386;2024-03-17T14:21:51;3.40;;;2.22;;
44222;SDS011;29895;48.804;9.386;2024-03-17T14:24:17;3.05;;;1.90;;
44222;SDS011;29895;48.804;9.386;2024-03-17T14:26:46;5.57;;;2.40;;
44222;SDS011;29895;48.804;9.386;2024-03-17T14:29:11;5.90;;;3.15;;
44222;SDS011;29895;48.804;9.386;2024-03-17T14:31:37;5.20;;;2.45;;
44222;SDS011;29895;48.804;9.386;2024-03-17T14:34:04;4.93;;;2.80;;
44222;SDS011;29895;48.804;9.386;2024-03-17T14:36:31;5.75;;;2.40;;
44222;SDS011;29895;48.804;9.386;2024-03-17T14:38:58;3.47;;;2.30;;
44222;SDS011;29895;48.804;9.386;2024-03-17T14:41:29;5.15;;;2.78;;
44222;SDS011;29895;48.804;9.386;2024-03-17T14:43:56;5.50;;;2.80;;
44222;SDS011;29895;48.804;9.386;2024-03-17T14:46:26;5.72;;;2.80;;
44222;SDS011;29895;48.804;9.386;2024-03-17T14:48:52;3.22;;;2.50;;
44222;SDS011;29895;48.804;9.386;2024-03-17T14:51:18;4.43;;;2.50;;
44222;SDS011;29895;48.804;9.386;2024-03-17T14:53:46;3.75;;;2.40;;
44222;SDS011;29895;48.804;9.386;2024-03-17T14:56:17;4.32;;;2.60;;
44222;SDS011;29895;48.804;9.386;2024-03-17T14:58:46;5.70;;;2.72;;
44222;SDS011;29895;48.804;9.386;2024-03-17T15:01:12;5.50;;;2.47;;
44222;SDS011;29895;48.804;9.386;2024-03-17T15:03:38;6.07;;;2.67;;
44222;SDS011;29895;48.804;9.386;2024-03-17T15:06:11;3.83;;;2.30;;
44222;SDS011;29895;48.804;9.386;2024-03-17T15:08:39;5.95;;;2.70;;
44222;SDS011;29895;48.804;9.386;2024-03-17T15:11:05;5.40;;;2.55;;
44222;SDS011;29895;48.804;9.386;2024-03-17T15:13:33;3.50;;;2.22;;
44222;SDS011;29895;48.804;9.386;2024-03-17T15:15:59;5.30;;;2.53;;
44222;SDS011;29895;48.804;9.386;2024-03-17T15:18:26;5.90;;;2.30;;
44222;SDS011;29895;48.804;9.386;2024-03-17T15:20:52;5.75;;;2.13;;
44222;SDS011;29895;48.804;9.386;2024-03-17T15:23:20;3.83;;;2.13;;